*** Opgelet: Temperatuurmeter en windmeter zijn momenteel defect ! ***

Webcam Zuid-West  Webcam Zuid-West


Apparatuur in gebruik:

Peet Bros Ultimeter 2100


METAR rapporten vliegvelden

   
EBBR - Brussels International Airport, Belgium
Afstand tot: W 14 km
Gewijzigd: 28-01-2023 05:20
Grotendeels bewolkt  
Grotendeels bewolkt  
   Wind: NO 9.3 km/h
Wind: NO 9.3 km/h
Temperatuur: 3°C
Voelt als: 1°C
Dauwpunt: -1°C
Vochtigheid: 75%
Barometer: 1029 hPa
Bewolking: Grotendeels bewolkt
Zicht: meer dan 10 km
Bewolking: Grotendeels bewolkt 2000 ft
EBBR 280420Z 04005KT 9999 BKN020 03/M01 Q1029 NOSIG
EBBE - Beauvechain (Bevekom), Belgium
Afstand tot: ZZO 17 km
Gewijzigd: 28-01-2023 05:25
Bewolking  
Bewolking  
   Wind: NNO 11.1 km/h
Wind: NNO 11.1 km/h
Temperatuur: 2°C
Voelt als: -1°C
Dauwpunt: -1°C
Vochtigheid: 81%
Barometer: 1028 hPa
Bewolking: Bewolking
Zicht: 9 km
Bewolking: Bewolking 1600 ft
EBBE 280425Z AUTO 03006KT 9000 OVC016/// 02/M01 Q1028 WHT
EBDT - Schaffen, Belgium
Afstand tot: ONO 29 km
Gewijzigd: 28-01-2023 05:25
Bewolking  
Bewolking  
   Wind: NNO 16.7 km/h
Wind: NNO 16.7 km/h
Temperatuur: 2°C
Voelt als: -2°C
Dauwpunt: -1°C
Vochtigheid: 81%
Barometer: 1029 hPa
Bewolking: Bewolking
Zicht: meer dan 10 km
Bewolking: Bewolking 1700 ft
EBDT 280425Z AUTO 02009KT 9999 OVC017/// 02/M01 Q1029 WHT
EBAW - Antwerp/Deurne, Belgium
Afstand tot: NNW 38 km
Gewijzigd: 28-01-2023 05:20
Bewolking  
Bewolking  
   Wind: NO 7.4 km/h
Wind: NO 7.4 km/h
Temperatuur: 2°C
Voelt als: 0°C
Dauwpunt: -2°C
Vochtigheid: 75%
Barometer: 1030 hPa
Bewolking: Bewolking
Zicht: meer dan 10 km
Bewolking: Bewolking 2100 ft
EBAW 280420Z AUTO 04004KT 360V060 9999 // OVC021/// 02/M02 Q1030
EBCI - Charleroi/Gosselies, Belgium
Afstand tot: ZZW 51 km
Gewijzigd: 28-01-2023 05:20
Grotendeels bewolkt  
Grotendeels bewolkt  
   Wind: NNO 14.8 km/h
Wind: NNO 14.8 km/h
Temperatuur: 1°C
Voelt als: -3°C
Dauwpunt: -2°C
Vochtigheid: 81%
Barometer: 1028 hPa
Bewolking: Grotendeels bewolkt
Zicht: meer dan 10 km
Bewolking: Grotendeels bewolkt 1500 ft
EBCI 280420Z 03008KT 9999 BKN015 01/M02 Q1028 TEMPO 2000 BR BKN008
EBLG - Bierset/Liege, Belgium
Afstand tot: OZO 60 km
Gewijzigd: 28-01-2023 05:20
Grotendeels bewolkt  
Grotendeels bewolkt  
   Wind: Noorden 11.1 km/h
Wind: Noorden 11.1 km/h
Temperatuur: 1°C
Voelt als: -2°C
Dauwpunt: -1°C
Vochtigheid: 87%
Barometer: 1028 hPa
Bewolking: Grotendeels bewolkt
Zicht: meer dan 10 km
Bewolking: Grotendeels bewolkt 1300 ft
EBLG 280420Z 01006KT 9999 BKN013 01/M01 Q1028 NOSIG

Script ontwikkeld door  Saratoga-weather.org Aangepast voor de template door  Weerstation Leuven

WWW
LOGO

WWW.UITBERGEN.NET

Schild